Time;durP1;ratioP1;P1;durP2;ratioP2;P2;SDS_P1;SDS_P2;PMS_P1;PMS_P2;Temp;Humidity;BMP_temperature;BMP_pressure;BME280_temperature;BME280_humidity;BME280_pressure;Samples;Min_cycle;Max_cycle;Signal;HPM_P1;HPM_P2
2023/06/10 00:01:27;;;;;;;;;;;;;;;11.74;57.83;100128.47;5027970;28;20384;-72
2023/06/10 00:03:53;;;;;;;;;;;;;;;11.63;57.34;100122.19;5028904;28;19932;-72
2023/06/10 00:06:21;;;;;;;;;;;;;;;11.65;57.50;100130.13;5047590;28;19964;-73
2023/06/10 00:08:47;;;;;;;;;;;;;;;11.57;58.03;100135.03;5046077;28;20023;-72
2023/06/10 00:11:13;;;;;;;;;;;;;;;11.57;57.64;100131.50;5048187;28;19939;-71
2023/06/10 00:13:40;;;;;;;;;;;;;;;11.56;57.88;100129.88;5046953;28;20326;-71
2023/06/10 00:16:07;;;;;;;;;;;;;;;11.44;58.37;100133.69;5046584;28;19925;-71
2023/06/10 00:18:33;;;;;;;;;;;;;;;11.31;59.45;100132.28;5048179;28;19951;-71
2023/06/10 00:21:04;;;;;;;;;;;;;;;11.27;59.21;100135.84;5047248;28;19924;-73
2023/06/10 00:23:30;;;;;;;;;;;;;;;11.03;59.63;100108.97;5047347;28;19944;-71
2023/06/10 00:25:58;;;;;;;;;;;;;;;11.13;59.73;100136.38;5046429;28;20034;-72
2023/06/10 00:28:24;;;;;;;;;;;;;;;11.10;60.40;100142.38;5047466;28;19986;-72
2023/06/10 00:30:49;;;;;;;;;;;;;;;11.06;61.28;100146.72;5048172;28;20004;-72
2023/06/10 00:33:17;;;;;;;;;;;;;;;11.03;61.58;100148.13;5048933;28;19932;-72
2023/06/10 00:35:42;;;;;;;;;;;;;;;11.01;61.35;100141.25;5047255;28;19925;-71
2023/06/10 00:38:08;;;;;;;;;;;;;;;11.00;61.27;100147.81;5047814;28;20289;-72
2023/06/10 00:40:39;;;;;;;;;;;;;;;10.97;61.43;100149.19;5049955;28;20019;-72
2023/06/10 00:43:05;;;;;;;;;;;;;;;10.95;61.64;100161.50;5046404;28;19924;-72
2023/06/10 00:45:31;;;;;;;;;;;;;;;10.94;62.04;100168.06;5048014;28;20315;-71
2023/06/10 00:47:57;;;;;;;;;;;;;;;10.93;61.81;100169.97;5026670;28;19947;-69
2023/06/10 00:50:25;;;;;;;;;;;;;;;10.94;61.45;100163.41;5026457;28;20422;-71
2023/06/10 00:52:52;;;;;;;;;;;;;;;10.96;61.28;100176.81;5046658;28;20355;-71
2023/06/10 00:55:18;;;;;;;;;;;;;;;10.97;61.18;100173.00;5045175;28;19935;-71
2023/06/10 00:57:44;;;;;;;;;;;;;;;11.00;61.21;100172.44;5047359;28;20323;-72
2023/06/10 01:00:10;;;;;;;;;;;;;;;11.01;61.04;100171.34;5046831;28;19948;-73
2023/06/10 01:02:36;;;;;;;;;;;;;;;11.13;60.49;100177.41;5047085;28;20019;-71
2023/06/10 01:05:03;;;;;;;;;;;;;;;11.16;61.36;100173.31;5029386;28;20027;-72
2023/06/10 01:07:35;;;;;;;;;;;;;;;11.29;60.36;100174.72;5044265;28;19924;-72
2023/06/10 01:10:04;;;;;;;;;;;;;;;11.37;60.44;100184.31;5046872;28;19930;-72
2023/06/10 01:12:33;;;;;;;;;;;;;;;11.44;60.28;100182.13;5027915;28;20023;-73
2023/06/10 01:14:59;;;;;;;;;;;;;;;11.55;59.45;100188.44;5044286;28;19931;-73
2023/06/10 01:17:27;;;;;;;;;;;;;;;11.65;59.51;100198.59;5045561;28;19924;-72
2023/06/10 01:19:54;;;;;;;;;;;;;;;11.71;59.64;100212.03;5045606;28;19933;-72
2023/06/10 01:22:22;;;;;;;;;;;;;;;11.88;59.40;100211.75;5028591;28;19924;-71
2023/06/10 01:24:51;;;;;;;;;;;;;;;12.03;57.94;100204.66;5026869;28;20348;-71
2023/06/10 01:27:19;;;;;;;;;;;;;;;12.06;57.34;100204.09;5047887;28;19991;-71
2023/06/10 01:29:52;;;;;;;;;;;;;;;12.04;57.46;100209.88;5026841;28;19948;-72
2023/06/10 01:32:21;;;;;;;;;;;;;;;11.99;57.53;100207.09;5047251;28;19986;-71
2023/06/10 01:34:48;;;;;;;;;;;;;;;11.96;58.72;100210.38;5045919;28;19935;-72
2023/06/10 01:37:17;;;;;;;;;;;;;;;11.97;58.61;100217.50;5061345;28;19925;-73
2023/06/10 01:39:45;;;;;;;;;;;;;;;11.91;58.00;100215.88;5042395;28;19925;-71
2023/06/10 01:42:11;;;;;;;;;;;;;;;11.76;58.91;100220.25;5044025;28;19962;-72
2023/06/10 01:44:38;;;;;;;;;;;;;;;11.66;59.12;100217.50;5042874;28;19952;-71
2023/06/10 01:47:04;;;;;;;;;;;;;;;11.55;59.15;100227.63;5045465;28;19935;-72
2023/06/10 01:49:30;;;;;;;;;;;;;;;11.49;60.07;100226.78;5027802;28;20355;-72
2023/06/10 01:51:56;;;;;;;;;;;;;;;11.48;60.22;100230.59;5046991;28;19930;-72
2023/06/10 01:54:21;;;;;;;;;;;;;;;11.58;60.28;100234.47;5045001;28;20441;-72
2023/06/10 01:56:49;;;;;;;;;;;;;;;11.68;59.54;100228.19;5044872;28;19936;-71
2023/06/10 01:59:15;;;;;;;;;;;;;;;11.70;59.30;100237.75;5043075;28;19924;-73
2023/06/10 02:01:41;;;;;;;;;;;;;;;11.69;59.54;100238.03;5009769;28;20020;-72
2023/06/10 02:04:09;;;;;;;;;;;;;;;11.64;59.54;100241.59;5044111;28;20362;-72
2023/06/10 02:06:37;;;;;;;;;;;;;;;11.53;59.21;100245.41;5043144;28;19924;-72
2023/06/10 02:09:03;;;;;;;;;;;;;;;11.42;59.55;100253.59;5028592;28;20020;-70
2023/06/10 02:11:29;;;;;;;;;;;;;;;11.32;59.98;100246.19;5011030;28;20019;-71
2023/06/10 02:13:56;;;;;;;;;;;;;;;11.25;60.26;100248.34;5042779;28;20015;-71
2023/06/10 02:16:22;;;;;;;;;;;;;;;11.12;60.27;100252.41;5009217;28;19975;-71
2023/06/10 02:18:48;;;;;;;;;;;;;;;11.03;60.84;100254.81;5042629;28;19986;-71
2023/06/10 02:21:14;;;;;;;;;;;;;;;10.97;61.44;100255.88;5043740;28;20444;-70
2023/06/10 02:23:40;;;;;;;;;;;;;;;10.97;62.04;100263.28;5044008;28;19925;-69
2023/06/10 02:26:06;;;;;;;;;;;;;;;10.99;61.36;100250.97;5044050;28;20019;-70
2023/06/10 02:28:32;;;;;;;;;;;;;;;10.97;61.33;100266.00;5042819;28;19947;-70
2023/06/10 02:31:00;;;;;;;;;;;;;;;10.97;61.27;100257.81;5042180;28;20596;-70
2023/06/10 02:33:27;;;;;;;;;;;;;;;10.89;62.25;100265.41;5044902;28;19925;-70
2023/06/10 02:35:53;;;;;;;;;;;;;;;10.80;62.77;100269.75;5043189;28;20030;-72
2023/06/10 02:38:19;;;;;;;;;;;;;;;10.70;63.26;100270.53;5044814;28;19925;-68
2023/06/10 02:40:45;;;;;;;;;;;;;;;10.66;63.56;100274.03;5044529;28;19925;-70
2023/06/10 02:43:12;;;;;;;;;;;;;;;10.68;63.82;100274.59;5043477;28;19925;-69
2023/06/10 02:45:38;;;;;;;;;;;;;;;10.67;63.22;100276.50;5024828;28;20023;-70
2023/06/10 02:48:06;;;;;;;;;;;;;;;10.75;63.76;100284.22;5044929;28;19971;-70
2023/06/10 02:50:32;;;;;;;;;;;;;;;10.84;63.39;100281.81;5026801;28;20347;-70
2023/06/10 02:53:10;;;;;;;;;;;;;;;10.95;63.64;100288.16;5027252;28;19925;-70
2023/06/10 02:55:39;;;;;;;;;;;;;;;11.04;62.78;100280.25;5042943;28;20406;-71
2023/06/10 02:58:08;;;;;;;;;;;;;;;11.07;63.05;100286.03;5009005;28;19925;-71
2023/06/10 03:00:35;;;;;;;;;;;;;;;11.18;63.11;100283.34;5025497;28;19930;-71
2023/06/10 03:03:03;;;;;;;;;;;;;;;11.23;63.18;100279.78;5041478;28;20396;-71
2023/06/10 03:05:35;;;;;;;;;;;;;;;11.28;62.36;100286.13;5027413;28;19947;-70
2023/06/10 03:08:03;;;;;;;;;;;;;;;11.35;61.39;100283.13;5045213;28;19971;-71
2023/06/10 03:10:32;;;;;;;;;;;;;;;11.43;61.20;100284.53;5028809;28;19925;-70
2023/06/10 03:12:58;;;;;;;;;;;;;;;11.46;61.40;100287.56;5024987;28;19924;-71
2023/06/10 03:15:25;;;;;;;;;;;;;;;11.51;59.81;100286.75;5042133;28;19932;-70
2023/06/10 03:17:51;;;;;;;;;;;;;;;11.54;60.50;100288.94;5042644;28;20409;-70
2023/06/10 03:20:17;;;;;;;;;;;;;;;11.60;60.52;100287.88;5038335;28;19971;-72
2023/06/10 03:22:45;;;;;;;;;;;;;;;11.62;59.53;100280.19;5042572;28;20027;-72
2023/06/10 03:25:13;;;;;;;;;;;;;;;11.60;59.72;100279.66;5041891;28;19964;-71
2023/06/10 03:27:42;;;;;;;;;;;;;;;11.66;59.39;100285.16;5026058;28;19928;-72
2023/06/10 03:30:08;;;;;;;;;;;;;;;11.74;58.37;100284.59;5026114;28;19928;-71
2023/06/10 03:32:35;;;;;;;;;;;;;;;11.84;58.46;100292.03;5008268;28;20311;-71
2023/06/10 03:35:02;;;;;;;;;;;;;;;11.78;58.69;100291.19;5043121;28;19924;-70
2023/06/10 03:37:30;;;;;;;;;;;;;;;11.77;58.25;100292.28;5044659;28;19960;-71
2023/06/10 03:39:57;;;;;;;;;;;;;;;11.85;58.33;100301.88;5009393;28;19925;-72
2023/06/10 03:42:23;;;;;;;;;;;;;;;11.92;57.71;100300.53;5041977;28;20360;-71
2023/06/10 03:44:49;;;;;;;;;;;;;;;11.99;57.85;100302.19;5044550;28;20027;-72
2023/06/10 03:47:15;;;;;;;;;;;;;;;12.01;57.34;100305.50;5042542;28;19925;-72
2023/06/10 03:49:42;;;;;;;;;;;;;;;12.01;57.25;100297.25;5041523;28;20019;-72
2023/06/10 03:52:09;;;;;;;;;;;;;;;12.08;56.48;100297.03;5025352;28;19929;-72
2023/06/10 03:54:35;;;;;;;;;;;;;;;12.11;56.82;100308.28;5025008;28;20341;-71
2023/06/10 03:57:03;;;;;;;;;;;;;;;12.12;56.02;100298.13;5025815;28;19928;-71
2023/06/10 03:59:30;;;;;;;;;;;;;;;12.15;56.61;100308.53;5041281;28;20015;-71
2023/06/10 04:01:56;;;;;;;;;;;;;;;12.26;56.86;100306.66;5043068;28;20475;-72
2023/06/10 04:04:23;;;;;;;;;;;;;;;12.28;55.99;100297.03;5042071;28;20388;-72
2023/06/10 04:06:49;;;;;;;;;;;;;;;12.33;55.40;100299.78;5043390;28;19931;-72
2023/06/10 04:09:16;;;;;;;;;;;;;;;12.46;54.87;100311.28;5043986;28;19925;-72
2023/06/10 04:11:41;;;;;;;;;;;;;;;12.47;55.17;100312.94;5043073;28;19929;-72
2023/06/10 04:14:09;;;;;;;;;;;;;;;12.54;55.44;100313.50;5045369;28;20011;-72
2023/06/10 04:16:36;;;;;;;;;;;;;;;12.55;55.20;100308.81;5026568;28;20119;-73
2023/06/10 04:19:02;;;;;;;;;;;;;;;12.59;55.29;100321.69;5040941;28;19925;-72
2023/06/10 04:21:28;;;;;;;;;;;;;;;12.62;55.11;100318.41;5041229;28;19946;-71
2023/06/10 04:23:54;;;;;;;;;;;;;;;12.66;53.59;100321.41;5041192;28;20462;-72
2023/06/10 04:26:21;;;;;;;;;;;;;;;12.73;53.82;100313.75;5049798;28;20032;-71
2023/06/10 04:28:47;;;;;;;;;;;;;;;12.74;54.15;100314.56;5043499;28;20183;-70
2023/06/10 04:31:14;;;;;;;;;;;;;;;12.82;53.48;100319.50;5044329;28;19928;-73
2023/06/10 04:33:41;;;;;;;;;;;;;;;12.89;52.76;100320.00;5028056;28;20356;-73
2023/06/10 04:36:07;;;;;;;;;;;;;;;12.91;52.88;100308.78;5045985;28;19964;-72
2023/06/10 04:38:33;;;;;;;;;;;;;;;13.04;52.73;100321.91;5044138;28;19932;-72
2023/06/10 04:41:00;;;;;;;;;;;;;;;13.01;52.94;100302.44;5028617;28;20395;-71
2023/06/10 04:43:29;;;;;;;;;;;;;;;13.15;52.49;100324.63;5035058;28;19925;-72
2023/06/10 04:45:55;;;;;;;;;;;;;;;13.16;52.05;100327.09;5032050;28;19932;-72
2023/06/10 04:48:24;;;;;;;;;;;;;;;13.18;52.06;100324.03;5025809;28;19924;-72
2023/06/10 04:50:50;;;;;;;;;;;;;;;13.23;51.80;100334.19;5058374;28;19924;-72
2023/06/10 04:53:17;;;;;;;;;;;;;;;13.25;51.38;100332.00;5041530;28;20040;-71
2023/06/10 04:55:45;;;;;;;;;;;;;;;13.26;51.02;100339.13;5046217;28;19933;-73
2023/06/10 04:58:11;;;;;;;;;;;;;;;13.22;50.75;100333.38;5046736;28;19924;-71
2023/06/10 05:00:37;;;;;;;;;;;;;;;13.23;51.24;100339.69;5044790;28;19924;-72
2023/06/10 05:03:03;;;;;;;;;;;;;;;13.28;50.72;100346.00;5043659;28;19925;-71
2023/06/10 05:05:30;;;;;;;;;;;;;;;13.38;50.64;100333.34;5045914;28;20069;-71
2023/06/10 05:07:56;;;;;;;;;;;;;;;13.41;50.41;100338.25;5045054;28;19967;-71
2023/06/10 05:10:22;;;;;;;;;;;;;;;13.53;50.25;100348.94;5045673;28;19924;-72
2023/06/10 05:12:48;;;;;;;;;;;;;;;13.63;49.54;100337.94;5044689;28;19931;-70
2023/06/10 05:15:14;;;;;;;;;;;;;;;13.64;48.88;100344.22;5049604;28;20354;-71
2023/06/10 05:17:40;;;;;;;;;;;;;;;13.66;48.50;100344.75;5046495;28;19925;-69
2023/06/10 05:20:06;;;;;;;;;;;;;;;13.66;48.58;100350.25;5046475;28;20374;-71
2023/06/10 05:22:34;;;;;;;;;;;;;;;13.63;48.81;100337.94;5040676;28;19924;-71
2023/06/10 05:25:00;;;;;;;;;;;;;;;13.59;48.61;100345.09;5037663;28;19924;-71
2023/06/10 05:27:26;;;;;;;;;;;;;;;13.61;48.24;100345.63;5039511;28;19931;-71
2023/06/10 05:29:51;;;;;;;;;;;;;;;13.66;48.10;100345.59;5037972;28;20309;-69
2023/06/10 05:32:17;;;;;;;;;;;;;;;13.72;48.41;100346.41;5018595;28;19936;-72
2023/06/10 05:34:43;;;;;;;;;;;;;;;13.77;49.08;100348.31;5035544;28;19925;-70
2023/06/10 05:37:09;;;;;;;;;;;;;;;13.82;49.07;100348.28;5048765;28;19924;-71
2023/06/10 05:39:39;;;;;;;;;;;;;;;13.89;49.48;100354.25;5045326;28;19931;-71
2023/06/10 05:42:06;;;;;;;;;;;;;;;13.91;48.05;100352.06;5043579;28;20514;-71
2023/06/10 05:44:32;;;;;;;;;;;;;;;13.90;47.98;100356.75;5036008;28;19986;-71
2023/06/10 05:46:58;;;;;;;;;;;;;;;13.95;48.56;100361.38;5036464;28;20479;-72
2023/06/10 05:49:24;;;;;;;;;;;;;;;14.02;47.83;100363.81;5043481;28;20039;-71
2023/06/10 05:51:50;;;;;;;;;;;;;;;14.03;47.70;100360.78;5030232;28;20027;-70
2023/06/10 05:54:15;;;;;;;;;;;;;;;14.07;47.74;100357.47;5024889;28;20392;-70
2023/06/10 05:56:43;;;;;;;;;;;;;;;14.11;47.80;100358.53;5056841;28;20359;-71
2023/06/10 05:59:08;;;;;;;;;;;;;;;14.10;46.78;100359.66;5045926;28;19964;-71
2023/06/10 06:01:34;;;;;;;;;;;;;;;14.16;46.90;100366.75;5044550;28;19978;-71
2023/06/10 06:04:00;;;;;;;;;;;;;;;14.24;46.31;100348.81;5043753;28;19924;-70
2023/06/10 06:06:26;;;;;;;;;;;;;;;14.29;46.04;100357.88;5043476;28;19947;-71
2023/06/10 06:08:52;;;;;;;;;;;;;;;14.41;46.03;100359.44;5040190;28;20372;-71
2023/06/10 06:11:18;;;;;;;;;;;;;;;14.57;46.14;100360.97;5041065;28;19935;-71
2023/06/10 06:13:45;;;;;;;;;;;;;;;14.79;45.80;100364.38;5043571;28;19924;-71
2023/06/10 06:16:11;;;;;;;;;;;;;;;14.95;45.05;100362.28;5042166;28;19932;-71
2023/06/10 06:18:37;;;;;;;;;;;;;;;15.03;45.08;100365.22;5023065;28;19951;-72
2023/06/10 06:21:03;;;;;;;;;;;;;;;15.03;45.30;100372.69;5045570;28;19924;-71
2023/06/10 06:23:28;;;;;;;;;;;;;;;14.92;45.20;100366.47;5034370;28;19932;-71
2023/06/10 06:25:54;;;;;;;;;;;;;;;14.77;45.58;100377.63;5041708;28;19932;-72
2023/06/10 06:28:21;;;;;;;;;;;;;;;14.92;44.88;100366.47;5044044;28;20387;-71
2023/06/10 06:30:49;;;;;;;;;;;;;;;15.28;44.03;100356.97;5042642;28;20331;-71
2023/06/10 06:33:15;;;;;;;;;;;;;;;15.19;44.66;100364.25;5019937;28;20351;-71
2023/06/10 06:35:41;;;;;;;;;;;;;;;15.12;44.57;100370.91;5025831;28;20332;-71
2023/06/10 06:38:06;;;;;;;;;;;;;;;15.50;43.98;100385.94;5024253;28;19979;-71
2023/06/10 06:40:33;;;;;;;;;;;;;;;15.95;43.66;100367.22;5042075;28;19929;-71
2023/06/10 06:42:59;;;;;;;;;;;;;;;16.36;42.51;100378.75;5043143;28;19931;-71
2023/06/10 06:45:45;;;;;;;;;;;;;;;16.75;41.21;100388.63;5038742;28;19925;-71
2023/06/10 06:48:12;;;;;;;;;;;;;;;17.10;40.59;100380.03;5043627;28;20398;-69
2023/06/10 06:50:38;;;;;;;;;;;;;;;17.31;40.28;100377.66;5043436;28;20023;-71
2023/06/10 06:53:04;;;;;;;;;;;;;;;17.54;39.58;100395.19;5042927;28;19930;-71
2023/06/10 06:55:30;;;;;;;;;;;;;;;17.58;39.91;100384.34;5042200;28;19925;-71
2023/06/10 06:57:55;;;;;;;;;;;;;;;17.34;39.79;100388.13;5045209;28;19987;-70
2023/06/10 07:00:21;;;;;;;;;;;;;;;16.80;40.64;100396.00;5044098;28;19924;-70
2023/06/10 07:02:48;;;;;;;;;;;;;;;16.36;41.49;100392.53;5048352;28;20023;-70
2023/06/10 07:05:15;;;;;;;;;;;;;;;16.00;42.20;100391.94;5042720;28;20435;-70
2023/06/10 07:07:41;;;;;;;;;;;;;;;16.17;41.99;100390.59;5045084;28;19932;-70
2023/06/10 07:10:07;;;;;;;;;;;;;;;16.40;40.91;100388.09;5027899;28;20020;-70
2023/06/10 07:12:33;;;;;;;;;;;;;;;16.27;39.64;100395.16;5046829;28;19924;-70
2023/06/10 07:14:59;;;;;;;;;;;;;;;16.00;40.07;100399.38;5044755;28;19932;-70
2023/06/10 07:17:26;;;;;;;;;;;;;;;15.77;40.96;100403.81;5045143;28;19925;-71
2023/06/10 07:19:52;;;;;;;;;;;;;;;15.63;41.34;100398.19;5043947;28;19931;-71
2023/06/10 07:22:20;;;;;;;;;;;;;;;15.55;42.26;100399.66;5046840;28;20285;-71
2023/06/10 07:24:45;;;;;;;;;;;;;;;15.84;41.86;100401.50;5045051;28;19931;-71
2023/06/10 07:27:11;;;;;;;;;;;;;;;16.72;40.62;100398.31;5044496;28;20382;-71
2023/06/10 07:29:37;;;;;;;;;;;;;;;17.63;38.27;100383.41;5044211;28;19932;-70
2023/06/10 07:32:03;;;;;;;;;;;;;;;18.04;37.25;100398.34;5045299;28;20467;-71
2023/06/10 07:34:29;;;;;;;;;;;;;;;17.80;37.11;100391.91;5044973;28;19931;-71
2023/06/10 07:36:55;;;;;;;;;;;;;;;17.33;37.37;100397.56;5045007;28;19924;-70
2023/06/10 07:39:23;;;;;;;;;;;;;;;16.81;37.93;100398.44;5044628;28;19925;-70
2023/06/10 07:41:49;;;;;;;;;;;;;;;16.40;38.44;100399.13;5025983;28;19991;-70
2023/06/10 07:44:15;;;;;;;;;;;;;;;16.18;38.83;100406.03;5046791;28;19967;-70
2023/06/10 07:46:41;;;;;;;;;;;;;;;16.21;39.81;100419.22;5045033;28;19959;-70
2023/06/10 07:49:07;;;;;;;;;;;;;;;16.48;39.13;100408.66;5042033;28;19932;-70
2023/06/10 07:51:33;;;;;;;;;;;;;;;16.72;38.33;100405.78;5043905;28;19986;-70
2023/06/10 07:53:58;;;;;;;;;;;;;;;16.63;38.65;100416.69;5042906;28;20380;-70
2023/06/10 07:56:26;;;;;;;;;;;;;;;16.79;38.26;100408.97;5044238;28;19951;-70
2023/06/10 07:58:52;;;;;;;;;;;;;;;17.05;37.07;100400.28;5029415;28;19936;-71
2023/06/10 08:01:17;;;;;;;;;;;;;;;17.63;36.14;100417.41;5060663;28;20027;-70
2023/06/10 08:03:43;;;;;;;;;;;;;;;18.13;35.45;100419.41;5030218;28;19924;-70
2023/06/10 08:06:11;;;;;;;;;;;;;;;18.68;34.30;100414.00;5042766;28;19925;-71
2023/06/10 08:08:42;;;;;;;;;;;;;;;19.19;33.19;100419.38;5049176;28;19964;-70
2023/06/10 08:11:08;;;;;;;;;;;;;;;18.94;33.07;100424.44;5048788;28;19928;-72
2023/06/10 08:13:36;;;;;;;;;;;;;;;18.59;32.91;100419.47;5014584;28;19924;-72
2023/06/10 08:16:01;;;;;;;;;;;;;;;19.06;32.46;100426.66;5049104;28;19931;-72
2023/06/10 08:18:27;;;;;;;;;;;;;;;19.63;31.17;100427.91;5013836;28;20400;-72
2023/06/10 08:20:53;;;;;;;;;;;;;;;20.13;30.87;100423.97;5048504;28;20354;-72
2023/06/10 08:23:20;;;;;;;;;;;;;;;20.64;30.10;100440.16;5041958;28;20024;-72
2023/06/10 08:25:45;;;;;;;;;;;;;;;21.21;29.39;100424.38;5026856;28;20019;-71
2023/06/10 08:28:11;;;;;;;;;;;;;;;21.36;29.30;100423.84;5047838;28;19925;-72
2023/06/10 08:30:38;;;;;;;;;;;;;;;21.66;28.24;100429.47;5048477;28;19959;-71
2023/06/10 08:33:05;;;;;;;;;;;;;;;21.39;28.25;100442.66;5031779;28;19924;-73
2023/06/10 08:35:30;;;;;;;;;;;;;;;20.14;28.91;100447.84;5044585;28;19932;-72
2023/06/10 08:37:56;;;;;;;;;;;;;;;18.96;30.92;100441.56;5046261;28;19963;-72
2023/06/10 08:40:22;;;;;;;;;;;;;;;19.53;29.59;100426.25;5047433;28;19932;-71
2023/06/10 08:42:52;;;;;;;;;;;;;;;20.29;27.77;100438.19;5014067;28;20392;-72
2023/06/10 08:45:18;;;;;;;;;;;;;;;20.22;27.98;100441.47;5045334;28;19929;-72
2023/06/10 08:47:47;;;;;;;;;;;;;;;20.86;26.57;100453.09;5048287;28;19931;-71
2023/06/10 08:50:14;;;;;;;;;;;;;;;21.87;25.45;100441.81;5046903;28;20384;-71
2023/06/10 08:52:42;;;;;;;;;;;;;;;22.45;24.77;100439.28;5045546;28;19925;-72
2023/06/10 08:55:10;;;;;;;;;;;;;;;21.20;26.13;100443.03;5043648;28;19965;-72
2023/06/10 08:57:37;;;;;;;;;;;;;;;19.65;27.83;100447.81;5038134;28;19925;-72
2023/06/10 09:00:04;;;;;;;;;;;;;;;18.68;29.57;100455.53;5027072;28;19979;-73
2023/06/10 09:02:31;;;;;;;;;;;;;;;18.31;30.67;100452.78;5027952;28;19925;-71
2023/06/10 09:04:59;;;;;;;;;;;;;;;17.98;31.24;100452.91;5042763;28;19932;-72
2023/06/10 09:07:25;;;;;;;;;;;;;;;17.83;31.07;100446.59;5047688;28;19925;-72
2023/06/10 09:09:53;;;;;;;;;;;;;;;17.84;31.35;100450.19;5045196;28;20489;-72
2023/06/10 09:12:19;;;;;;;;;;;;;;;18.21;30.83;100456.59;5034147;28;19925;-72
2023/06/10 09:14:45;;;;;;;;;;;;;;;19.73;29.11;100446.22;5016293;28;19925;-70
2023/06/10 09:17:11;;;;;;;;;;;;;;;19.52;29.01;100447.59;5042347;28;20596;-70
2023/06/10 09:19:38;;;;;;;;;;;;;;;18.84;30.00;100450.47;5046248;28;19971;-71
2023/06/10 09:22:05;;;;;;;;;;;;;;;18.35;30.76;100455.75;5046348;28;20399;-71
2023/06/10 09:24:32;;;;;;;;;;;;;;;18.04;31.65;100467.50;5048623;28;19924;-70
2023/06/10 09:27:06;;;;;;;;;;;;;;;17.77;31.85;100461.66;5027317;28;19924;-70
2023/06/10 09:29:32;;;;;;;;;;;;;;;17.54;31.99;100464.28;5028307;28;19971;-70
2023/06/10 09:31:58;;;;;;;;;;;;;;;17.61;31.67;100457.56;5023246;28;19971;-70
2023/06/10 09:34:25;;;;;;;;;;;;;;;18.81;30.11;100460.22;5042829;28;19932;-71
2023/06/10 09:36:51;;;;;;;;;;;;;;;18.70;29.87;100464.34;5046755;28;19971;-71
2023/06/10 09:39:18;;;;;;;;;;;;;;;18.64;30.47;100471.16;5046096;28;19928;-70
2023/06/10 09:41:45;;;;;;;;;;;;;;;19.68;29.29;100463.81;5048226;28;20442;-71
2023/06/10 09:44:12;;;;;;;;;;;;;;;21.74;26.87;100465.94;5045661;28;20036;-71
2023/06/10 09:46:37;;;;;;;;;;;;;;;22.83;25.45;100467.34;5044535;28;19940;-71
2023/06/10 09:49:03;;;;;;;;;;;;;;;22.68;25.08;100469.59;5042369;28;19924;-71
2023/06/10 09:51:29;;;;;;;;;;;;;;;21.60;26.14;100472.50;5050225;28;20427;-71
2023/06/10 09:53:55;;;;;;;;;;;;;;;20.76;26.54;100475.63;5029425;28;19924;-70
2023/06/10 09:56:32;;;;;;;;;;;;;;;21.37;25.74;100480.28;5047133;28;19943;-70
2023/06/10 09:58:57;;;;;;;;;;;;;;;22.83;24.42;100461.78;5046416;28;20023;-70
2023/06/10 10:01:24;;;;;;;;;;;;;;;23.91;22.85;100467.44;5045122;28;20030;-72
2023/06/10 10:03:50;;;;;;;;;;;;;;;24.88;22.07;100463.19;5045345;28;19924;-71
2023/06/10 10:06:17;;;;;;;;;;;;;;;25.54;21.32;100466.56;5047236;28;19935;-70
2023/06/10 10:08:43;;;;;;;;;;;;;;;26.13;20.69;100461.16;5044400;28;19925;-71
2023/06/10 10:11:09;;;;;;;;;;;;;;;26.74;19.58;100461.66;5042688;28;20475;-72
2023/06/10 10:13:37;;;;;;;;;;;;;;;27.20;18.42;100471.38;5046231;28;19968;-70
2023/06/10 10:16:04;;;;;;;;;;;;;;;27.51;18.56;100465.88;5046888;28;20090;-70
2023/06/10 10:18:31;;;;;;;;;;;;;;;28.07;18.08;100463.59;5046151;28;20368;-71
2023/06/10 10:20:59;;;;;;;;;;;;;;;28.16;18.09;100469.72;5045727;28;20402;-71
2023/06/10 10:23:29;;;;;;;;;;;;;;;28.17;18.00;100471.38;5042210;28;19928;-70
2023/06/10 10:25:57;;;;;;;;;;;;;;;28.34;17.57;100469.22;5043278;28;19959;-71
2023/06/10 10:28:26;;;;;;;;;;;;;;;28.07;17.78;100466.41;5043352;28;19924;-71
2023/06/10 10:30:59;;;;;;;;;;;;;;;27.93;17.63;100469.78;5028143;28;19924;-70
2023/06/10 10:33:33;;;;;;;;;;;;;;;27.85;17.58;100471.69;5042312;28;19925;-70
2023/06/10 10:36:00;;;;;;;;;;;;;;;28.11;17.36;100467.25;5042256;28;19951;-71
2023/06/10 10:38:27;;;;;;;;;;;;;;;28.74;16.65;100464.91;5027375;28;20011;-71
2023/06/10 10:40:59;;;;;;;;;;;;;;;28.13;17.17;100470.50;5043369;28;19925;-69
2023/06/10 10:43:25;;;;;;;;;;;;;;;28.07;17.37;100464.38;5043612;28;20027;-70
2023/06/10 10:45:59;;;;;;;;;;;;;;;28.61;16.69;100461.53;5045779;28;20070;-69
2023/06/10 10:48:26;;;;;;;;;;;;;;;29.51;16.47;100463.72;5045092;28;19925;-69
2023/06/10 10:50:56;;;;;;;;;;;;;;;30.01;16.10;100468.91;5029366;28;20015;-71
2023/06/10 10:53:22;;;;;;;;;;;;;;;29.21;16.97;100473.06;5046229;28;19924;-72
2023/06/10 10:55:57;;;;;;;;;;;;;;;26.92;18.67;100471.63;5046445;28;19925;-69
2023/06/10 10:58:25;;;;;;;;;;;;;;;24.57;20.71;100475.84;5046460;28;19928;-72
2023/06/10 11:00:50;;;;;;;;;;;;;;;22.68;22.21;100469.59;5029785;28;19925;-70
2023/06/10 11:03:18;;;;;;;;;;;;;;;21.55;23.51;100469.94;5046032;28;19924;-69
2023/06/10 11:05:47;;;;;;;;;;;;;;;22.93;22.20;100480.84;5046533;28;19929;-71
2023/06/10 11:08:14;;;;;;;;;;;;;;;24.77;20.27;100480.47;5046348;28;19929;-70
2023/06/10 11:10:40;;;;;;;;;;;;;;;26.40;19.05;100477.38;5045884;28;19928;-69
2023/06/10 11:13:08;;;;;;;;;;;;;;;27.58;18.17;100475.28;5047515;28;20438;-71
2023/06/10 11:15:37;;;;;;;;;;;;;;;28.96;16.90;100468.00;5042706;28;19995;-72
2023/06/10 11:18:10;;;;;;;;;;;;;;;29.08;16.48;100473.34;5046566;28;19960;-69
2023/06/10 11:20:51;;;;;;;;;;;;;;;28.10;17.22;100474.06;5045049;28;19924;-71
2023/06/10 11:23:31;;;;;;;;;;;;;;;25.23;19.34;100468.13;5046725;28;19924;-72
2023/06/10 11:26:09;;;;;;;;;;;;;;;22.85;22.21;100476.19;5046336;28;19929;-74
2023/06/10 11:28:35;;;;;;;;;;;;;;;21.46;23.42;100469.94;5028939;28;19925;-71
2023/06/10 11:31:01;;;;;;;;;;;;;;;20.49;24.78;100483.13;5045446;28;19979;-71
2023/06/10 11:33:27;;;;;;;;;;;;;;;20.09;25.81;100484.03;5035503;28;19928;-71
2023/06/10 11:35:55;;;;;;;;;;;;;;;20.45;25.51;100480.19;5037642;28;19925;-71
2023/06/10 11:38:21;;;;;;;;;;;;;;;23.11;22.13;100492.66;5038684;28;20007;-71
2023/06/10 11:40:48;;;;;;;;;;;;;;;25.75;19.44;100476.66;5022401;28;20423;-71
2023/06/10 11:43:14;;;;;;;;;;;;;;;27.13;17.69;100477.69;5042179;28;19928;-71
2023/06/10 11:45:41;;;;;;;;;;;;;;;28.16;16.99;100472.53;5042648;28;19978;-71
2023/06/10 11:48:06;;;;;;;;;;;;;;;29.22;15.89;100469.88;5047756;28;20522;-71
2023/06/10 11:50:33;;;;;;;;;;;;;;;26.79;17.78;100471.78;5045507;28;20023;-71
2023/06/10 11:53:00;;;;;;;;;;;;;;;24.46;20.22;100486.72;5047536;28;19978;-71
2023/06/10 11:55:38;;;;;;;;;;;;;;;22.79;21.76;100473.63;5045851;28;19947;-71
2023/06/10 11:58:04;;;;;;;;;;;;;;;21.41;23.51;100478.47;5044363;28;20392;-71
2023/06/10 12:00:30;;;;;;;;;;;;;;;20.48;24.02;100479.53;5042957;28;19994;-71
2023/06/10 12:02:57;;;;;;;;;;;;;;;19.87;24.82;100476.59;5048515;28;20392;-71
2023/06/10 12:05:23;;;;;;;;;;;;;;;19.73;25.34;100483.06;5026576;28;19956;-71
2023/06/10 12:07:48;;;;;;;;;;;;;;;19.78;24.71;100482.97;5044420;28;19975;-70
2023/06/10 12:10:16;;;;;;;;;;;;;;;19.68;24.63;100491.56;5040694;28;19928;-71
2023/06/10 12:12:42;;;;;;;;;;;;;;;19.70;24.66;100489.28;5046150;28;19928;-70
2023/06/10 12:15:09;;;;;;;;;;;;;;;20.57;23.63;100489.81;5040558;28;19970;-71
2023/06/10 12:17:38;;;;;;;;;;;;;;;21.81;22.36;100482.91;5038323;28;19955;-71
2023/06/10 12:20:05;;;;;;;;;;;;;;;21.87;22.13;100487.16;5035453;28;19934;-71
2023/06/10 12:22:36;;;;;;;;;;;;;;;22.74;21.37;100481.38;5045868;28;19925;-71
2023/06/10 12:25:03;;;;;;;;;;;;;;;23.25;20.46;100485.94;5044447;28;20343;-71
2023/06/10 12:27:31;;;;;;;;;;;;;;;22.66;21.17;100472.72;5040933;28;19951;-70
2023/06/10 12:30:02;;;;;;;;;;;;;;;22.10;21.63;100479.34;4691371;28;10000286;-73
2023/06/10 12:32:36;;;;;;;;;;;;;;;22.24;21.37;100476.28;5042733;28;19948;-72
2023/06/10 12:35:03;;;;;;;;;;;;;;;25.03;19.47;100470.81;5038773;28;19931;-72